createdAt,value
2022-12-14T00:01:19.348Z,51.93
2022-12-14T00:03:50.270Z,51.68
2022-12-14T00:06:26.060Z,51.65
2022-12-14T00:08:58.524Z,51.65
2022-12-14T00:11:29.157Z,51.71
2022-12-14T00:14:02.327Z,51.94
2022-12-14T00:16:35.076Z,52.01
2022-12-14T00:19:07.571Z,51.76
2022-12-14T00:21:37.741Z,51.74
2022-12-14T00:24:07.952Z,51.66
2022-12-14T00:26:38.034Z,51.68
2022-12-14T00:29:08.035Z,51.80
2022-12-14T00:31:38.600Z,51.58
2022-12-14T00:34:08.907Z,51.69
2022-12-14T00:36:40.101Z,51.82
2022-12-14T00:39:10.265Z,52.20
2022-12-14T00:41:40.325Z,52.03
2022-12-14T00:44:10.368Z,52.05
2022-12-14T00:46:40.414Z,52.20
2022-12-14T00:49:11.366Z,52.53
2022-12-14T00:51:41.500Z,52.80
2022-12-14T00:54:11.736Z,52.88
2022-12-14T00:56:41.679Z,52.90
2022-12-14T00:59:11.704Z,53.31
2022-12-14T01:01:42.036Z,53.40
2022-12-14T01:04:21.713Z,53.83
2022-12-14T01:06:54.088Z,53.55
2022-12-14T01:09:26.156Z,53.82
2022-12-14T01:11:56.282Z,53.75
2022-12-14T01:14:26.286Z,53.88
2022-12-14T01:16:56.248Z,53.73
2022-12-14T01:19:26.379Z,54.03
2022-12-14T01:21:56.398Z,53.94
2022-12-14T01:24:26.418Z,54.04
2022-12-14T01:26:57.304Z,54.19
2022-12-14T01:29:27.556Z,54.05
2022-12-14T01:31:57.772Z,54.12
2022-12-14T01:34:28.288Z,53.92
2022-12-14T01:36:58.306Z,53.44
2022-12-14T01:39:28.534Z,53.17
2022-12-14T01:41:58.857Z,53.17
2022-12-14T01:44:28.971Z,52.94
2022-12-14T01:47:30.838Z,52.70
2022-12-14T01:50:10.612Z,52.56
2022-12-14T01:52:50.456Z,52.47
2022-12-14T01:55:25.515Z,52.11
2022-12-14T01:58:12.213Z,52.06
2022-12-14T02:00:43.088Z,51.90
2022-12-14T02:03:29.720Z,52.04
2022-12-14T14:06:45.178Z,44.93
2022-12-14T14:10:35.992Z,45.14
2022-12-14T14:13:30.640Z,45.26
2022-12-14T14:16:27.387Z,45.54
2022-12-14T14:18:57.314Z,45.63
2022-12-14T14:21:42.767Z,45.85
2022-12-14T14:24:24.501Z,45.83
2022-12-14T14:27:25.895Z,45.67
2022-12-14T14:29:57.824Z,45.88
2022-12-14T14:32:36.269Z,45.89
2022-12-14T14:35:39.980Z,45.89
2022-12-14T14:38:25.966Z,46.16
2022-12-14T14:41:18.549Z,46.22
2022-12-14T14:44:05.619Z,46.00
2022-12-14T14:46:48.643Z,46.15
2022-12-14T14:49:36.636Z,46.11
2022-12-14T14:52:41.728Z,46.02
2022-12-14T14:55:54.809Z,46.05
2022-12-14T14:58:38.240Z,46.11
2022-12-14T15:01:09.925Z,46.11
2022-12-14T15:03:46.295Z,46.12
2022-12-14T15:06:42.387Z,46.16
2022-12-14T15:09:15.934Z,46.31
2022-12-14T15:12:06.405Z,46.57
2022-12-14T15:14:48.473Z,46.67
2022-12-14T15:17:21.789Z,46.60
2022-12-14T15:19:54.379Z,46.55
2022-12-14T15:22:34.257Z,46.64
2022-12-14T15:25:06.055Z,46.54
2022-12-14T15:27:41.613Z,46.61
2022-12-14T15:30:15.024Z,46.81
2022-12-14T15:33:12.864Z,46.93
2022-12-14T15:35:49.367Z,47.12
2022-12-14T15:38:33.050Z,46.78
2022-12-14T15:41:17.383Z,47.08
2022-12-14T15:43:50.186Z,46.91
2022-12-14T15:46:28.018Z,47.18
2022-12-14T15:49:00.059Z,47.42
2022-12-14T15:51:35.490Z,47.26
2022-12-14T15:54:08.291Z,47.68
2022-12-14T15:56:46.433Z,47.69
2022-12-14T15:59:20.126Z,47.73
2022-12-14T16:01:56.040Z,47.72
2022-12-14T16:04:32.103Z,47.58
2022-12-14T16:07:15.670Z,48.00
2022-12-14T16:09:53.664Z,47.95
2022-12-14T16:12:49.454Z,47.87
2022-12-14T16:15:26.803Z,47.97
2022-12-14T16:18:02.566Z,47.91
2022-12-14T16:20:36.550Z,47.95
2022-12-14T16:23:18.700Z,47.85
2022-12-14T16:26:05.428Z,47.78
2022-12-14T16:28:38.585Z,47.88
2022-12-14T16:31:24.852Z,47.49
2022-12-14T16:34:25.819Z,47.54
2022-12-14T16:39:55.252Z,47.56
2022-12-14T16:42:29.776Z,47.59
2022-12-14T16:45:00.008Z,47.92
2022-12-14T16:48:04.148Z,47.97
2022-12-14T16:50:55.495Z,48.10
2022-12-14T16:53:28.089Z,48.06
2022-12-14T16:56:07.505Z,47.89
2022-12-14T16:58:39.010Z,48.29
2022-12-14T17:01:12.540Z,48.28
2022-12-14T17:03:43.310Z,48.44
2022-12-14T17:06:27.371Z,48.44
2022-12-14T17:08:57.644Z,48.37
2022-12-14T17:11:27.597Z,48.53
2022-12-14T17:13:57.967Z,48.63
2022-12-14T17:16:28.367Z,48.69
2022-12-14T17:18:59.309Z,48.56
2022-12-14T17:21:31.794Z,48.55
2022-12-14T17:24:02.176Z,48.86
2022-12-14T17:26:34.240Z,48.69
2022-12-14T17:29:04.480Z,48.78
2022-12-14T17:31:34.951Z,48.77
2022-12-14T17:34:05.105Z,48.81
2022-12-14T17:36:35.143Z,48.71
2022-12-14T17:39:05.184Z,49.03
2022-12-14T17:41:35.364Z,49.02
2022-12-14T17:44:05.727Z,48.93
2022-12-14T17:46:36.067Z,48.95
2022-12-14T17:49:08.984Z,48.81
2022-12-14T17:51:44.116Z,49.02
2022-12-14T17:54:25.913Z,48.87
2022-12-14T17:56:59.232Z,49.11
2022-12-14T17:59:30.414Z,48.94
2022-12-14T18:02:00.673Z,49.17
2022-12-14T18:04:31.116Z,49.05
2022-12-14T18:07:01.066Z,48.81
2022-12-14T18:09:31.089Z,48.96
2022-12-14T18:12:22.760Z,48.96
2022-12-14T18:14:51.323Z,48.72
2022-12-14T18:17:22.480Z,48.90
2022-12-14T18:19:52.680Z,49.02
2022-12-14T18:22:24.020Z,49.25
2022-12-14T18:24:54.031Z,49.18
2022-12-14T18:27:23.958Z,49.40
2022-12-14T18:29:53.863Z,49.42
2022-12-14T18:32:23.796Z,49.31
2022-12-14T18:34:53.719Z,49.32
2022-12-14T18:37:27.166Z,49.15
2022-12-14T18:39:59.857Z,49.41
2022-12-14T18:42:29.909Z,49.32
2022-12-14T18:45:00.302Z,49.53
2022-12-14T18:47:44.982Z,49.60
2022-12-14T18:50:16.476Z,49.61
2022-12-14T18:52:48.430Z,49.56
2022-12-14T18:55:28.739Z,49.80
2022-12-14T18:58:01.155Z,50.01
2022-12-14T19:00:39.083Z,49.88
2022-12-14T19:03:09.395Z,49.99
2022-12-14T19:05:39.817Z,50.06
2022-12-14T19:08:12.613Z,50.28
2022-12-14T19:10:47.015Z,50.39
2022-12-14T19:13:25.511Z,50.02
2022-12-14T19:15:57.126Z,49.96
2022-12-14T19:18:29.692Z,50.09
2022-12-14T19:21:01.187Z,50.04
2022-12-14T19:23:31.685Z,50.15
2022-12-14T19:26:05.307Z,50.15
2022-12-14T19:28:35.883Z,50.48
2022-12-14T19:31:06.287Z,50.29
2022-12-14T19:33:36.475Z,50.39
2022-12-14T19:36:10.783Z,50.45
2022-12-14T19:38:41.381Z,50.35
2022-12-14T19:41:14.495Z,50.42
2022-12-14T19:43:44.835Z,50.39
2022-12-14T19:46:18.174Z,50.49
2022-12-14T19:48:48.732Z,50.44
2022-12-14T19:51:20.508Z,50.66
2022-12-14T19:53:50.813Z,50.48
2022-12-14T19:56:21.408Z,50.64
2022-12-14T19:58:51.765Z,50.74
2022-12-14T20:01:22.133Z,50.41
2022-12-14T20:03:52.798Z,50.26
2022-12-14T20:06:23.072Z,50.37
2022-12-14T20:08:53.392Z,50.39
2022-12-14T20:11:23.673Z,50.60
2022-12-14T20:13:58.152Z,50.23
2022-12-14T20:16:31.349Z,50.39
2022-12-14T20:19:01.708Z,50.26
2022-12-14T20:21:32.284Z,50.09
2022-12-14T20:24:03.960Z,50.29
2022-12-14T20:26:35.035Z,50.05
2022-12-14T20:29:08.079Z,50.13
2022-12-14T20:31:39.136Z,50.36
2022-12-14T20:34:10.654Z,50.28
2022-12-14T20:36:42.715Z,50.35
2022-12-14T20:39:13.121Z,50.21
2022-12-14T20:41:43.443Z,50.34
2022-12-14T20:44:18.321Z,50.15
2022-12-14T20:46:49.404Z,50.31
2022-12-14T20:49:22.284Z,50.23
2022-12-14T20:51:52.552Z,50.48
2022-12-14T20:54:24.404Z,50.35
2022-12-14T20:56:54.609Z,50.44
2022-12-14T20:59:24.943Z,50.40
2022-12-14T21:01:56.450Z,50.48
2022-12-14T21:04:28.063Z,50.70
2022-12-14T21:06:58.194Z,50.73
2022-12-14T21:09:28.521Z,50.71
2022-12-14T21:12:16.828Z,50.80
2022-12-14T21:14:50.764Z,51.09
2022-12-14T21:17:22.696Z,51.07
2022-12-14T21:19:53.871Z,51.17
2022-12-14T21:22:26.160Z,51.00
2022-12-14T21:25:05.372Z,51.16
2022-12-14T21:27:40.329Z,51.08
2022-12-14T21:30:13.469Z,51.02
2022-12-14T21:32:43.751Z,50.85
2022-12-14T21:35:15.420Z,50.88
2022-12-14T21:37:47.225Z,50.84
2022-12-14T21:40:37.145Z,51.00
2022-12-14T21:43:07.392Z,50.99
2022-12-14T21:45:37.587Z,50.93
2022-12-14T21:48:07.883Z,50.78
2022-12-14T21:50:38.016Z,50.80
2022-12-14T21:53:08.007Z,50.74
2022-12-14T21:55:38.235Z,50.91
2022-12-14T21:58:20.746Z,50.85
2022-12-14T22:00:50.995Z,50.92
2022-12-14T22:03:21.231Z,50.88
2022-12-14T22:05:51.738Z,51.04
2022-12-14T22:08:22.000Z,51.08
2022-12-14T22:10:52.220Z,51.35
2022-12-14T22:13:22.355Z,51.55
2022-12-14T22:15:52.639Z,51.30
2022-12-14T22:18:23.579Z,51.66
2022-12-14T22:20:53.868Z,51.56
2022-12-14T22:23:23.823Z,51.89
2022-12-14T22:25:53.906Z,52.00
2022-12-14T22:28:24.848Z,52.08
2022-12-14T22:30:54.973Z,52.96
2022-12-14T22:33:24.883Z,52.91
2022-12-14T22:35:55.159Z,52.88
2022-12-14T22:38:25.755Z,53.10
2022-12-14T22:40:55.944Z,52.80
2022-12-14T22:43:29.827Z,52.71
2022-12-14T22:46:04.380Z,52.95
2022-12-14T22:48:35.959Z,52.77
2022-12-14T22:51:09.154Z,52.71
2022-12-14T22:53:40.053Z,52.70
2022-12-14T22:56:29.323Z,52.00
2022-12-14T22:59:08.811Z,52.63
2022-12-14T23:02:13.538Z,53.29
2022-12-14T23:04:44.184Z,52.88
2022-12-14T23:07:14.502Z,52.74
2022-12-14T23:10:02.811Z,52.73
2022-12-14T23:12:51.547Z,52.81
2022-12-14T23:15:40.162Z,52.88
2022-12-14T23:18:28.953Z,53.00
2022-12-14T23:21:17.682Z,53.07
2022-12-14T23:24:06.839Z,53.06
2022-12-14T23:26:55.342Z,52.78
2022-12-14T23:29:43.654Z,52.82
2022-12-14T23:32:32.051Z,52.85
2022-12-14T23:35:20.719Z,52.96
2022-12-14T23:38:09.225Z,53.03
2022-12-14T23:40:58.451Z,53.11
2022-12-14T23:43:46.720Z,52.83
2022-12-14T23:46:35.498Z,52.84
2022-12-14T23:49:24.106Z,52.89
2022-12-14T23:52:12.659Z,52.98
2022-12-14T23:55:01.003Z,53.16
2022-12-14T23:57:49.553Z,53.24
